Time;durP1;ratioP1;P1;durP2;ratioP2;P2;SDS_P1;SDS_P2;PMS_P1;PMS_P2;Temp;Humidity;BMP_temperature;BMP_pressure;BME280_temperature;BME280_humidity;BME280_pressure;Samples;Min_cycle;Max_cycle;Signal;HPM_P1;HPM_P2
2022/08/11 00:01:17;;;;;;;2.00;1.08;;;;;;;25.81;45.84;102331.97;5007690;28;20034;-60
2022/08/11 00:03:45;;;;;;;1.33;1.13;;;;;;;25.81;45.66;102326.50;5024816;28;20085;-60
2022/08/11 00:06:13;;;;;;;1.45;1.00;;;;;;;25.81;45.63;102328.41;5007268;28;20467;-59
2022/08/11 00:08:39;;;;;;;1.05;0.93;;;;;;;25.81;45.97;102337.41;5007826;28;20029;-59
2022/08/11 00:11:08;;;;;;;1.13;0.90;;;;;;;25.81;45.68;102334.69;5019045;28;20068;-59
2022/08/11 00:13:36;;;;;;;2.65;1.13;;;;;;;25.80;45.74;102346.63;5046154;28;20064;-59
2022/08/11 00:16:03;;;;;;;1.27;1.10;;;;;;;25.74;45.83;102322.78;5030643;28;20021;-60
2022/08/11 00:18:39;;;;;;;1.52;1.00;;;;;;;25.79;45.63;102334.03;5030696;28;20270;-61
2022/08/11 00:21:04;;;;;;;1.88;1.10;;;;;;;25.80;45.74;102333.00;5048610;28;20026;-60
2022/08/11 00:23:30;;;;;;;1.35;0.93;;;;;;;25.79;45.58;102334.03;5048261;28;20032;-61
2022/08/11 00:25:56;;;;;;;1.42;0.98;;;;;;;25.79;45.71;102341.38;5030237;28;20017;-60
2022/08/11 00:28:32;;;;;;;1.17;1.00;;;;;;;25.79;45.61;102339.47;5047827;28;20475;-61
2022/08/11 00:31:01;;;;;;;1.80;1.25;;;;;;;25.79;45.68;102339.47;5030441;28;20084;-60
2022/08/11 00:33:49;;;;;;;1.77;1.10;;;;;;;25.78;45.49;102340.50;5030154;28;20112;-60
2022/08/11 00:36:17;;;;;;;1.80;1.08;;;;;;;25.78;45.37;102334.19;5047853;28;20033;-59
2022/08/11 00:38:44;;;;;;;1.88;1.38;;;;;;;25.78;45.47;102336.91;5030263;28;20022;-60
2022/08/11 00:41:30;;;;;;;1.65;1.17;;;;;;;25.79;45.37;102334.03;5030218;28;20029;-60
2022/08/11 00:44:17;;;;;;;1.73;0.95;;;;;;;25.78;45.51;102328.75;5029239;28;20032;-59
2022/08/11 00:47:13;;;;;;;1.60;1.02;;;;;;;25.78;45.61;102328.75;5047808;28;20017;-60
2022/08/11 00:49:50;;;;;;;1.30;1.00;;;;;;;25.78;45.53;102335.03;5029789;28;20029;-61
2022/08/11 00:52:16;;;;;;;1.35;0.85;;;;;;;25.77;45.41;102336.06;5047687;28;20049;-62
2022/08/11 00:55:18;;;;;;;1.35;1.17;;;;;;;25.78;45.39;102328.75;5047510;28;20028;-60
2022/08/11 00:58:11;;;;;;;1.77;1.42;;;;;;;25.78;45.65;102331.47;5047057;28;20044;-60
2022/08/11 01:01:03;;;;;;;1.20;0.85;;;;;;;25.77;45.84;102329.78;5029852;28;20028;-60
2022/08/11 01:03:50;;;;;;;1.70;1.00;;;;;;;25.76;45.53;102337.06;5032429;28;20026;-59
2022/08/11 01:06:40;;;;;;;1.50;1.13;;;;;;;25.77;45.77;102337.94;5042080;28;20013;-60
2022/08/11 01:09:24;;;;;;;1.77;1.13;;;;;;;25.75;45.64;102329.94;5027609;28;20022;-59
2022/08/11 01:12:25;;;;;;;1.70;1.17;;;;;;;25.76;45.10;102336.22;5043504;28;20049;-60
2022/08/11 01:15:28;;;;;;;1.00;0.90;;;;;;;25.76;45.20;102328.06;5029657;28;20021;-59
2022/08/11 01:18:18;;;;;;;1.95;1.35;;;;;;;25.75;45.29;102329.09;5047671;28;20034;-59
2022/08/11 01:21:08;;;;;;;1.77;1.63;;;;;;;25.75;44.86;102338.13;5028144;28;20409;-60
2022/08/11 01:23:53;;;;;;;1.73;1.23;;;;;;;25.74;44.77;102339.13;5009617;28;20037;-60
2022/08/11 01:26:47;;;;;;;1.98;1.27;;;;;;;25.74;44.50;102335.53;5009500;28;20085;-61
2022/08/11 01:29:22;;;;;;;1.38;1.10;;;;;;;25.73;44.54;102331.13;5026958;28;20025;-61
2022/08/11 01:32:07;;;;;;;1.45;1.20;;;;;;;25.73;44.76;102331.13;5009432;28;20028;-60
2022/08/11 01:35:10;;;;;;;1.85;1.27;;;;;;;25.73;44.50;102337.44;5009530;28;20105;-61
2022/08/11 01:37:57;;;;;;;1.58;1.10;;;;;;;25.73;43.83;102337.44;5044261;28;20056;-60
2022/08/11 01:40:39;;;;;;;1.33;0.98;;;;;;;25.71;43.96;102335.94;5029332;28;20415;-61
2022/08/11 01:46:20;;;;;;;1.50;1.30;;;;;;;25.70;43.75;102332.34;5046649;28;20031;-61
2022/08/11 01:49:23;;;;;;;1.50;1.15;;;;;;;25.71;43.75;102328.59;5028927;28;20057;-61
2022/08/11 01:51:52;;;;;;;2.58;1.13;;;;;;;25.70;43.21;102329.63;5028863;28;20149;-61
2022/08/11 01:54:22;;;;;;;1.70;1.00;;;;;;;25.69;43.11;102327.91;5046499;28;20029;-61
2022/08/11 01:57:06;;;;;;;1.45;1.02;;;;;;;25.69;43.16;102336.09;5046451;28;20057;-60
2022/08/11 01:59:36;;;;;;;1.52;1.02;;;;;;;25.67;42.79;102329.97;5046235;28;20093;-61
2022/08/11 02:02:46;;;;;;;1.85;1.33;;;;;;;25.63;42.67;102315.03;5028763;28;20410;-61
2022/08/11 02:05:33;;;;;;;3.22;1.15;;;;;;;25.68;42.67;102323.50;5046253;28;20113;-61
2022/08/11 02:08:18;;;;;;;1.52;1.10;;;;;;;25.68;42.51;102331.69;5046626;28;20057;-61
2022/08/11 02:13:51;;;;;;;2.75;1.75;;;;;;;25.64;42.46;102328.47;5010808;28;20053;-60
2022/08/11 02:16:35;;;;;;;2.88;1.65;;;;;;;25.66;42.59;102326.41;5008758;28;20026;-60
2022/08/11 02:24:52;;;;;;;1.60;1.30;;;;;;;25.65;42.50;102321.97;5010940;28;20117;-60
2022/08/11 02:27:23;;;;;;;1.52;1.25;;;;;;;25.65;42.58;102321.97;5008759;28;20021;-60
2022/08/11 02:30:05;;;;;;;1.88;1.40;;;;;;;25.65;42.27;102318.41;5025750;28;20036;-60
2022/08/11 02:35:46;;;;;;;1.95;1.33;;;;;;;25.64;42.10;102314.84;5025787;28;20032;-60
2022/08/11 02:38:17;;;;;;;2.42;1.50;;;;;;;25.63;42.39;102318.59;5008493;28;20028;-60
2022/08/11 02:44:19;;;;;;;2.15;1.23;;;;;;;25.60;42.20;102304.47;5025804;28;20043;-59
2022/08/11 02:47:23;;;;;;;2.20;1.45;;;;;;;25.63;42.31;102315.88;5008075;28;20444;-59
2022/08/11 02:50:01;;;;;;;1.63;1.17;;;;;;;25.55;42.27;102296.00;5025519;28;20034;-59
2022/08/11 02:52:32;;;;;;;1.65;1.30;;;;;;;25.61;42.41;102315.19;5008132;28;20056;-60
2022/08/11 02:55:20;;;;;;;1.60;1.27;;;;;;;25.60;42.20;102302.59;5007910;28;20037;-61
2022/08/11 02:58:02;;;;;;;1.60;1.20;;;;;;;25.60;42.15;102309.94;5007653;28;20030;-60
2022/08/11 03:00:29;;;;;;;1.98;1.48;;;;;;;25.60;42.37;102307.22;5008384;28;20057;-59
2022/08/11 03:03:38;;;;;;;2.83;1.55;;;;;;;25.60;42.27;102310.78;5025625;28;20030;-59
2022/08/11 03:06:16;;;;;;;2.53;1.25;;;;;;;25.59;42.30;102317.25;5013350;28;20064;-62
2022/08/11 03:08:55;;;;;;;1.80;1.30;;;;;;;25.59;42.21;102314.53;5025777;28;20078;-61
2022/08/11 03:18:02;;;;;;;2.13;1.50;;;;;;;25.58;42.22;102322.91;5030398;28;20056;-60
2022/08/11 03:20:57;;;;;;;1.35;1.25;;;;;;;25.56;42.38;102309.44;4997206;28;20037;-60
2022/08/11 03:23:33;;;;;;;2.17;1.45;;;;;;;25.54;42.22;102308.78;5045250;28;20014;-60
2022/08/11 03:26:23;;;;;;;1.48;1.20;;;;;;;25.55;42.22;102309.63;5027192;28;20028;-61
2022/08/11 03:29:04;;;;;;;4.35;1.52;;;;;;;25.56;42.40;102311.31;5044817;28;20070;-60
2022/08/11 03:31:44;;;;;;;2.80;1.40;;;;;;;25.55;42.25;102309.63;5027685;28;20394;-60
2022/08/11 03:34:17;;;;;;;1.30;1.10;;;;;;;25.54;42.20;102302.50;5027344;28;20032;-60
2022/08/11 03:36:49;;;;;;;1.85;1.63;;;;;;;25.54;42.28;102307.94;5027088;28;20021;-61
2022/08/11 03:39:37;;;;;;;2.83;1.45;;;;;;;25.53;42.21;102306.22;5045102;28;20467;-59
2022/08/11 03:42:23;;;;;;;1.60;1.45;;;;;;;25.53;42.17;102300.78;4945247;29;20050;-60
2022/08/11 03:45:23;;;;;;;1.80;1.45;;;;;;;25.53;42.16;102308.94;4944914;29;20028;-60
2022/08/11 03:48:06;;;;;;;1.85;1.33;;;;;;;25.52;42.13;102299.09;4946523;29;20047;-61
2022/08/11 03:50:43;;;;;;;1.75;1.30;;;;;;;25.52;42.25;102308.09;4948777;29;20032;-60
2022/08/11 03:53:31;;;;;;;1.40;1.30;;;;;;;25.51;42.17;102300.13;4949138;29;20075;-61
2022/08/11 03:56:21;;;;;;;1.88;1.33;;;;;;;25.51;42.14;102300.13;4932761;29;20095;-61
2022/08/11 03:59:22;;;;;;;2.15;1.42;;;;;;;25.51;42.06;102297.41;4948540;29;20032;-59
2022/08/11 04:02:18;;;;;;;1.73;1.27;;;;;;;25.50;41.98;102301.16;4949035;29;20051;-60
2022/08/11 04:05:20;;;;;;;2.17;1.42;;;;;;;25.49;42.16;102297.59;4948827;29;20066;-61
2022/08/11 04:08:26;;;;;;;1.45;1.23;;;;;;;25.48;41.91;102304.03;4949099;29;20091;-59
2022/08/11 04:11:36;;;;;;;1.40;1.30;;;;;;;25.48;42.11;102303.19;4948649;29;20505;-60
2022/08/11 04:17:58;;;;;;;2.03;1.35;;;;;;;25.46;42.14;102300.66;4948616;29;20042;-61
2022/08/11 04:20:30;;;;;;;1.77;1.30;;;;;;;25.45;42.03;102298.97;5010885;28;20026;-60
2022/08/11 04:23:18;;;;;;;1.70;1.58;;;;;;;25.45;42.03;102304.41;5028559;28;20026;-61
2022/08/11 04:26:21;;;;;;;3.20;1.45;;;;;;;25.45;42.06;102301.69;5027741;28;20029;-61
2022/08/11 04:29:02;;;;;;;1.50;1.27;;;;;;;25.43;42.19;102296.41;5028015;28;20025;-60
2022/08/11 04:31:38;;;;;;;2.03;1.52;;;;;;;25.44;42.01;102302.69;5028573;28;20292;-61
2022/08/11 04:34:26;;;;;;;1.58;1.30;;;;;;;25.43;41.89;102298.28;5011149;28;20391;-61
2022/08/11 04:39:56;;;;;;;1.25;1.15;;;;;;;25.42;41.96;102285.69;5028389;28;20044;-59
2022/08/11 04:45:37;;;;;;;1.73;1.58;;;;;;;25.42;41.93;102296.59;5012876;28;20129;-60
2022/08/11 05:03:22;;;;;;;1.73;1.20;;;;;;;25.38;41.92;102293.38;5012820;28;20080;-57
2022/08/11 05:06:17;;;;;;;2.22;1.40;;;;;;;25.37;42.10;102291.69;5027137;28;20037;-60
2022/08/11 05:08:51;;;;;;;1.70;1.23;;;;;;;25.37;41.88;102290.84;5010257;28;20029;-60
2022/08/11 05:11:22;;;;;;;2.30;1.13;;;;;;;25.36;41.80;102295.44;5041444;28;20026;-60
2022/08/11 05:36:25;;;;;;;1.85;1.10;;;;;;;25.34;41.91;102302.94;5031741;28;20056;-60
2022/08/11 05:58:25;;;;;;;1.40;1.13;;;;;;;25.32;42.13;102302.28;5046175;28;20090;-59
2022/08/11 06:00:51;;;;;;;2.50;1.75;;;;;;;25.32;42.02;102307.72;5028763;28;20053;-60
2022/08/11 06:03:26;;;;;;;1.40;1.10;;;;;;;25.32;42.10;102315.03;5046373;28;20091;-60
2022/08/11 06:05:52;;;;;;;2.80;1.35;;;;;;;25.32;42.07;102313.16;5028807;28;20029;-61
2022/08/11 06:08:26;;;;;;;2.25;1.15;;;;;;;25.32;42.10;102313.16;5028430;28;20071;-61
2022/08/11 06:10:59;;;;;;;1.23;1.00;;;;;;;25.32;41.96;102304.16;5018115;28;20027;-60
2022/08/11 06:13:24;;;;;;;2.42;1.20;;;;;;;25.33;42.17;102305.84;5008251;28;20093;-57
2022/08/11 06:15:51;;;;;;;1.20;1.10;;;;;;;25.33;42.19;102314.00;5026020;28;20080;-60
2022/08/11 06:18:16;;;;;;;1.55;1.42;;;;;;;25.33;42.12;102305.84;5026284;28;20022;-61
2022/08/11 06:20:53;;;;;;;1.63;1.10;;;;;;;25.33;42.25;102303.13;5026236;28;20053;-61
2022/08/11 06:23:22;;;;;;;1.90;1.45;;;;;;;25.24;42.06;102287.84;5008916;28;20058;-61
2022/08/11 06:25:48;;;;;;;0.98;0.93;;;;;;;25.32;42.19;102305.00;5008513;28;20109;-61
2022/08/11 06:28:15;;;;;;;1.77;1.13;;;;;;;25.33;42.36;102309.41;5025792;28;20463;-61
2022/08/11 06:30:43;;;;;;;2.03;1.33;;;;;;;25.31;42.21;102310.59;5026159;28;20028;-61
2022/08/11 06:33:13;;;;;;;2.47;1.20;;;;;;;25.33;42.20;102305.84;5025943;28;20033;-61
2022/08/11 06:35:53;;;;;;;1.20;1.10;;;;;;;25.34;42.20;102311.09;5008363;28;20042;-61
2022/08/11 06:38:35;;;;;;;1.10;1.00;;;;;;;25.33;42.33;102308.56;5008681;28;20017;-61
2022/08/11 06:41:29;;;;;;;1.35;1.20;;;;;;;25.34;42.12;102311.09;5008406;28;20022;-61
2022/08/11 06:44:12;;;;;;;2.13;1.00;;;;;;;25.34;42.31;102305.66;5009371;28;20117;-61
2022/08/11 06:47:10;;;;;;;2.08;1.38;;;;;;;25.33;42.14;102308.56;5025547;28;20052;-61
2022/08/11 06:52:36;;;;;;;2.55;1.52;;;;;;;25.33;42.01;102308.56;5010740;28;20107;-60
2022/08/11 06:55:14;;;;;;;2.33;1.65;;;;;;;25.32;42.28;102307.72;5008015;28;20053;-61
2022/08/11 07:00:28;;;;;;;1.38;1.20;;;;;;;25.33;42.50;102316.72;5010380;28;20032;-61
2022/08/11 07:03:07;;;;;;;1.48;1.20;;;;;;;25.32;42.25;102318.59;5008427;28;20040;-61
2022/08/11 07:05:46;;;;;;;2.00;1.30;;;;;;;25.33;42.28;102306.69;5025171;28;20021;-58
2022/08/11 07:17:20;;;;;;;1.45;1.30;;;;;;;25.32;42.22;102295.97;5030286;28;20045;-60
2022/08/11 07:31:12;;;;;;;1.67;1.40;;;;;;;25.30;41.93;102298.00;5030396;28;20055;-60
2022/08/11 07:34:26;;;;;;;1.83;1.38;;;;;;;25.33;42.17;102308.56;5045100;28;20021;-60
2022/08/11 07:36:59;;;;;;;1.77;1.30;;;;;;;25.31;42.17;102295.09;5001223;28;20052;-61
2022/08/11 07:39:26;;;;;;;1.90;1.50;;;;;;;25.31;42.29;102295.09;5027454;28;20036;-60
2022/08/11 07:41:54;;;;;;;1.75;1.20;;;;;;;25.32;42.27;102293.25;5027208;28;20029;-60
2022/08/11 07:44:20;;;;;;;1.52;1.15;;;;;;;25.32;42.37;102295.97;5044555;28;20474;-61
2022/08/11 07:54:57;;;;;;;1.42;1.33;;;;;;;25.32;42.27;102296.81;5028312;28;20018;-60
2022/08/11 08:19:19;;;;;;;3.85;1.52;;;;;;;25.31;44.78;102288.81;5010062;28;20386;-61
2022/08/11 08:21:45;;;;;;;1.60;1.30;;;;;;;25.32;44.55;102288.66;5024870;28;20025;-57
2022/08/11 08:24:11;;;;;;;2.03;1.67;;;;;;;25.29;44.68;102286.28;5007427;28;20494;-61
2022/08/11 08:32:06;;;;;;;1.48;1.25;;;;;;;25.33;44.36;102286.78;5010209;28;20137;-59
2022/08/11 08:34:31;;;;;;;2.67;1.48;;;;;;;25.29;44.55;102280.84;5026817;28;20026;-60
2022/08/11 08:36:57;;;;;;;1.73;1.27;;;;;;;25.34;44.35;102292.03;5028124;28;20049;-61
2022/08/11 08:39:22;;;;;;;1.30;1.15;;;;;;;25.36;44.53;102286.41;5028103;28;20030;-61
2022/08/11 08:41:53;;;;;;;1.27;1.10;;;;;;;25.36;44.59;102284.56;5027679;28;20034;-60
2022/08/11 08:44:20;;;;;;;1.23;1.00;;;;;;;25.38;44.45;102278.91;5009973;28;20030;-60
2022/08/11 08:46:52;;;;;;;2.95;1.50;;;;;;;25.39;44.76;102278.72;5010057;28;20057;-60
2022/08/11 08:49:22;;;;;;;1.40;1.17;;;;;;;25.42;44.90;102280.25;5010562;28;20026;-60
2022/08/11 08:51:51;;;;;;;1.42;1.20;;;;;;;25.27;44.99;102252.09;5010232;28;20050;-60
2022/08/11 08:54:22;;;;;;;1.77;1.30;;;;;;;25.41;45.05;102265.78;5010521;28;20026;-60
2022/08/11 08:56:50;;;;;;;1.33;1.10;;;;;;;25.44;45.02;102275.47;5010077;28;20026;-60
2022/08/11 08:59:15;;;;;;;1.50;1.25;;;;;;;25.45;45.07;102274.47;5027593;28;20048;-60
2022/08/11 09:01:57;;;;;;;1.10;0.90;;;;;;;25.47;45.32;102266.94;5010338;28;20443;-60
2022/08/11 09:04:23;;;;;;;1.13;1.00;;;;;;;25.48;45.05;102270.50;5009970;28;20117;-61
2022/08/11 09:06:49;;;;;;;1.40;1.15;;;;;;;25.46;45.08;102270.69;5027293;28;20032;-60
2022/08/11 09:09:15;;;;;;;1.27;1.17;;;;;;;25.49;44.93;102273.06;5010149;28;20029;-60
2022/08/11 09:11:52;;;;;;;1.20;1.10;;;;;;;25.50;44.88;102273.91;5026499;28;20028;-60
2022/08/11 09:14:59;;;;;;;1.60;1.23;;;;;;;25.51;44.79;102275.59;5030860;28;20067;-60
2022/08/11 09:17:11;;;;;;;1.27;1.17;;;;;;;25.51;44.69;102275.59;5032037;28;20067;-61
2022/08/11 09:19:37;;;;;;;1.27;0.98;;;;;;;25.47;44.76;102263.38;5029431;28;20052;-61
2022/08/11 09:27:31;;;;;;;1.40;1.05;;;;;;;25.52;44.68;102275.41;5047274;28;20464;-61
2022/08/11 09:29:57;;;;;;;1.58;1.20;;;;;;;25.54;44.80;102280.69;5047031;28;20021;-60
2022/08/11 09:32:22;;;;;;;1.17;1.02;;;;;;;25.47;44.90;102263.38;5047186;28;20032;-60
2022/08/11 09:34:50;;;;;;;2.08;1.05;;;;;;;25.54;44.84;102272.53;5029371;28;20033;-61
2022/08/11 09:45:30;;;;;;;2.08;1.33;;;;;;;25.54;44.84;102258.91;5031058;28;20036;-61
2022/08/11 09:47:56;;;;;;;1.35;1.08;;;;;;;25.52;44.85;102250.06;5029024;28;20025;-61
2022/08/11 09:50:22;;;;;;;2.00;1.17;;;;;;;25.54;44.68;102253.47;5046253;28;20033;-61
2022/08/11 09:52:49;;;;;;;1.60;1.17;;;;;;;25.55;44.69;102250.56;5046831;28;20505;-61
2022/08/11 09:55:14;;;;;;;1.10;1.00;;;;;;;25.54;44.79;102259.75;5029027;28;20025;-61
2022/08/11 10:00:39;;;;;;;1.65;1.10;;;;;;;25.55;44.47;102249.72;5046474;28;20049;-61
2022/08/11 10:03:08;;;;;;;1.63;1.27;;;;;;;25.54;44.40;102253.47;5029559;28;20041;-60
2022/08/11 10:08:34;;;;;;;1.55;1.23;;;;;;;25.55;44.36;102252.44;4985209;28;20085;-60
2022/08/11 10:11:00;;;;;;;2.33;1.50;;;;;;;25.56;44.53;102241.34;4979999;28;20089;-60
2022/08/11 10:13:32;;;;;;;1.30;1.20;;;;;;;25.54;44.32;102237.97;5003961;28;20034;-59
2022/08/11 10:16:01;;;;;;;1.38;1.27;;;;;;;25.55;44.12;102236.94;4988130;28;20026;-60
2022/08/11 10:18:41;;;;;;;1.58;1.08;;;;;;;25.57;44.14;102242.19;4988280;28;20038;-60
2022/08/11 10:21:14;;;;;;;1.10;1.00;;;;;;;25.59;44.11;102238.28;4988596;28;20026;-60
2022/08/11 10:35:13;;;;;;;1.30;1.20;;;;;;;25.61;43.93;102238.09;4965567;29;20079;-60
2022/08/11 10:37:40;;;;;;;1.13;1.02;;;;;;;25.61;44.10;102232.63;4965120;29;20039;-60
2022/08/11 10:40:06;;;;;;;2.20;1.20;;;;;;;25.61;44.00;102229.91;4949059;29;20425;-59
2022/08/11 10:48:01;;;;;;;1.75;1.42;;;;;;;25.64;43.81;102229.56;4946041;29;20179;-60
2022/08/11 10:51:12;;;;;;;1.27;1.10;;;;;;;25.61;43.91;102224.47;4929772;29;20035;-59
2022/08/11 10:58:56;;;;;;;1.90;1.25;;;;;;;25.65;43.77;102218.47;4931383;29;20072;-61
2022/08/11 11:01:32;;;;;;;1.30;1.20;;;;;;;25.67;43.79;102218.31;5021808;28;20033;-59
2022/08/11 11:04:12;;;;;;;1.92;1.60;;;;;;;25.67;43.81;102210.97;5016460;28;20024;-59
2022/08/11 11:06:49;;;;;;;1.48;1.38;;;;;;;25.67;43.84;102215.59;5036194;28;20078;-61
2022/08/11 11:09:29;;;;;;;1.42;1.02;;;;;;;25.69;43.86;102210.78;5025783;28;20032;-60
2022/08/11 11:18:00;;;;;;;1.20;1.10;;;;;;;25.72;43.64;102195.97;5029885;28;20080;-60
2022/08/11 11:20:34;;;;;;;2.08;1.30;;;;;;;25.72;43.71;102202.25;5012767;28;20509;-58
2022/08/11 11:23:05;;;;;;;1.23;1.13;;;;;;;25.73;43.78;102197.66;5008024;28;20101;-60
2022/08/11 11:26:05;;;;;;;2.58;1.20;;;;;;;25.74;43.84;102200.19;5007662;28;20022;-59
2022/08/11 11:28:52;;;;;;;2.22;1.58;;;;;;;25.76;43.68;102194.56;5009224;28;20029;-59
2022/08/11 11:31:31;;;;;;;2.10;1.38;;;;;;;25.75;43.59;102193.72;5028018;28;20022;-58
2022/08/11 11:34:05;;;;;;;1.67;1.10;;;;;;;25.76;43.50;102192.69;5028442;28;20026;-58
2022/08/11 11:36:44;;;;;;;2.00;1.00;;;;;;;25.77;43.60;102191.69;5035994;28;20034;-59
2022/08/11 11:39:09;;;;;;;1.42;1.33;;;;;;;25.78;43.61;102182.47;5046321;28;20022;-60
2022/08/11 11:41:35;;;;;;;1.42;1.33;;;;;;;25.79;43.63;102191.50;5027281;28;20021;-59
2022/08/11 11:44:00;;;;;;;1.33;1.08;;;;;;;25.80;43.65;102179.59;5044468;28;20112;-59
2022/08/11 11:46:27;;;;;;;1.20;1.10;;;;;;;25.81;43.63;102184.00;5027337;28;20100;-60
2022/08/11 11:48:54;;;;;;;1.98;1.40;;;;;;;25.75;43.33;102173.81;5027424;28;20029;-59
2022/08/11 11:51:21;;;;;;;1.63;1.15;;;;;;;25.83;43.47;102173.78;5044716;28;20072;-60
2022/08/11 11:53:47;;;;;;;1.33;1.00;;;;;;;25.84;43.39;102175.47;5027217;28;20032;-60
2022/08/11 11:56:12;;;;;;;2.10;1.30;;;;;;;25.84;43.52;102170.84;5044772;28;20022;-60
2022/08/11 12:01:24;;;;;;;1.83;1.25;;;;;;;25.87;43.16;102169.63;5030079;28;20052;-59
2022/08/11 12:03:51;;;;;;;2.13;1.17;;;;;;;25.86;43.39;102165.22;5044707;28;20040;-59
2022/08/11 12:06:18;;;;;;;1.48;1.17;;;;;;;25.88;43.45;102165.88;5026769;28;20072;-60
2022/08/11 12:08:43;;;;;;;1.42;1.13;;;;;;;25.82;43.41;102159.28;5028098;28;20022;-60
2022/08/11 12:13:56;;;;;;;1.55;1.38;;;;;;;25.85;43.13;102156.19;5028004;28;20060;-59
2022/08/11 12:16:22;;;;;;;2.05;1.17;;;;;;;25.92;42.99;102159.03;5028330;28;20018;-60
2022/08/11 12:18:51;;;;;;;3.28;1.40;;;;;;;25.93;43.35;102158.00;5028594;28;20072;-60
2022/08/11 12:21:17;;;;;;;2.55;1.33;;;;;;;25.93;43.36;102158.84;5028836;28;20633;-59
2022/08/11 12:29:13;;;;;;;1.55;1.23;;;;;;;25.96;43.40;102140.44;5013098;28;20040;-59
2022/08/11 12:31:39;;;;;;;2.08;1.30;;;;;;;25.98;43.27;102135.63;5028577;28;20022;-60
2022/08/11 12:34:10;;;;;;;1.63;1.25;;;;;;;25.98;43.26;102132.91;5028254;28;20026;-60
2022/08/11 12:36:40;;;;;;;2.33;1.25;;;;;;;25.99;43.21;102138.16;5028083;28;20052;-60
2022/08/11 12:39:09;;;;;;;1.77;1.38;;;;;;;25.99;43.05;102134.59;5010816;28;20036;-61
2022/08/11 12:47:06;;;;;;;1.92;1.20;;;;;;;26.01;43.18;102117.03;5013098;28;20060;-60
2022/08/11 12:52:22;;;;;;;1.58;0.93;;;;;;;26.04;43.28;102121.25;5012953;28;20052;-59
2022/08/11 12:54:59;;;;;;;1.17;1.00;;;;;;;26.04;43.16;102113.06;5010260;28;20085;-60
2022/08/11 13:05:48;;;;;;;2.00;1.30;;;;;;;26.07;43.11;102099.91;5012695;28;20084;-60
2022/08/11 13:08:15;;;;;;;1.73;1.33;;;;;;;26.08;43.20;102098.03;5010141;28;20098;-60
2022/08/11 13:13:27;;;;;;;1.85;0.90;;;;;;;26.09;43.27;102097.88;5031566;28;20087;-59
2022/08/11 13:15:52;;;;;;;1.40;1.10;;;;;;;26.07;43.15;102086.28;5047323;28;20064;-60
2022/08/11 13:18:22;;;;;;;1.50;1.08;;;;;;;26.11;43.02;102084.03;5047241;28;20025;-60
2022/08/11 13:20:48;;;;;;;1.70;1.05;;;;;;;26.08;43.45;102077.09;5046444;28;20022;-60
2022/08/11 13:23:15;;;;;;;2.10;1.60;;;;;;;26.12;43.14;102081.16;5029473;28;20029;-60
2022/08/11 13:25:40;;;;;;;1.77;1.38;;;;;;;26.13;43.19;102080.09;5029143;28;20045;-60
2022/08/11 13:28:06;;;;;;;2.28;1.20;;;;;;;26.14;43.29;102084.50;5029311;28;20009;-60
2022/08/11 13:33:17;;;;;;;1.27;1.10;;;;;;;26.17;43.05;102077.84;5032126;28;20167;-60
2022/08/11 13:35:46;;;;;;;1.45;1.17;;;;;;;26.17;43.03;102080.56;5029254;28;20540;-60
2022/08/11 13:38:12;;;;;;;2.55;1.50;;;;;;;26.16;43.01;102076.13;5047081;28;20613;-60
2022/08/11 13:40:39;;;;;;;1.35;1.10;;;;;;;26.20;43.57;102084.78;5029164;28;20025;-60
2022/08/11 13:43:05;;;;;;;2.78;1.42;;;;;;;26.21;43.14;102089.19;5029091;28;20084;-60
2022/08/11 13:45:31;;;;;;;1.42;1.10;;;;;;;26.22;43.41;102077.28;5028461;28;20029;-59
2022/08/11 13:47:58;;;;;;;1.83;1.20;;;;;;;26.23;43.16;102079.81;5046666;28;20025;-60
2022/08/11 13:51:29;;;;;;;1.40;1.00;;;;;;;26.24;43.03;102076.03;5028675;28;20025;-60
2022/08/11 13:53:13;;;;;;;1.25;1.15;;;;;;;26.26;43.31;102075.88;5046475;28;20029;-59
2022/08/11 13:55:39;;;;;;;;;;;;;;;26.25;43.15;102069.56;5029368;28;20032;-59
2022/08/11 13:58:04;;;;;;;1.38;1.13;;;;;;;26.27;43.12;102072.94;5028894;28;19980;-59
2022/08/11 14:00:30;;;;;;;1.40;0.85;;;;;;;26.27;43.52;102070.22;5028503;28;20499;-59
2022/08/11 14:02:56;;;;;;;2.08;1.10;;;;;;;26.28;43.35;102071.91;5046421;28;20108;-60
2022/08/11 14:05:28;;;;;;;1.15;0.98;;;;;;;26.29;43.26;102065.41;5028697;28;20230;-60
2022/08/11 14:07:59;;;;;;;1.25;0.98;;;;;;;26.30;43.53;102058.09;5046398;28;20098;-60
2022/08/11 14:10:27;;;;;;;1.40;1.00;;;;;;;26.31;43.44;102057.06;5021518;28;20022;-60
2022/08/11 14:15:46;;;;;;;1.48;1.33;;;;;;;26.27;43.35;102033.94;5011320;28;20036;-59
2022/08/11 14:18:19;;;;;;;1.70;1.15;;;;;;;26.36;43.33;102051.88;5026420;28;20050;-60
2022/08/11 14:23:40;;;;;;;2.05;1.10;;;;;;;26.37;43.40;102059.00;5026546;28;20033;-59
2022/08/11 14:26:25;;;;;;;1.63;1.25;;;;;;;26.39;43.18;102054.22;5008347;28;20025;-59
2022/08/11 14:29:09;;;;;;;1.23;0.98;;;;;;;26.41;43.42;102057.59;5010677;28;20029;-59
2022/08/11 14:31:37;;;;;;;0.80;0.70;;;;;;;26.41;43.53;102061.16;5026081;28;20068;-59
2022/08/11 14:34:04;;;;;;;1.60;1.10;;;;;;;26.40;43.55;102056.75;5008622;28;20237;-60
2022/08/11 14:36:38;;;;;;;1.42;1.10;;;;;;;26.41;43.27;102050.25;5012514;28;20043;-60
2022/08/11 14:39:12;;;;;;;1.23;1.00;;;;;;;26.43;43.40;102053.66;5028166;28;20024;-59
2022/08/11 14:47:16;;;;;;;1.25;1.13;;;;;;;26.46;43.59;102052.44;5030708;28;20027;-60
2022/08/11 14:49:42;;;;;;;1.70;1.02;;;;;;;26.47;43.51;102045.13;5028042;28;20021;-59
2022/08/11 14:52:14;;;;;;;1.77;0.93;;;;;;;26.47;43.29;102040.50;5045423;28;20044;-62
2022/08/11 14:57:27;;;;;;;1.10;0.90;;;;;;;26.51;43.65;102046.44;5030252;28;20085;-59
2022/08/11 14:59:54;;;;;;;1.38;0.88;;;;;;;26.51;43.63;102027.34;5027702;28;20033;-59
2022/08/11 15:05:05;;;;;;;1.67;1.25;;;;;;;26.53;43.36;102022.53;5030470;28;20039;-59
2022/08/11 15:07:31;;;;;;;1.55;1.10;;;;;;;26.53;43.55;102017.91;5045341;28;20021;-59
2022/08/11 15:09:58;;;;;;;2.75;0.90;;;;;;;26.54;43.53;102022.31;5024132;28;20056;-59
2022/08/11 15:12:24;;;;;;;1.33;0.95;;;;;;;26.57;43.54;102018.38;5007930;28;20022;-59
2022/08/11 15:17:06;;;;;;;1.25;0.98;;;;;;;26.49;43.52;102005.69;5025013;28;20419;-59
2022/08/11 15:17:42;;;;;;;2.25;1.17;;;;;;;26.55;43.67;102009.53;4988729;28;20041;-59
2022/08/11 15:25:42;;;;;;;1.45;1.17;;;;;;;26.60;43.51;102005.19;5010231;28;20455;-59
2022/08/11 15:39:18;;;;;;;1.10;1.00;;;;;;;26.65;43.40;101991.81;5025448;28;20086;-59
2022/08/11 15:47:26;;;;;;;1.63;1.20;;;;;;;26.67;43.53;101989.72;5013773;28;20029;-60
2022/08/11 15:49:55;;;;;;;1.30;1.00;;;;;;;26.69;43.75;101983.25;5029246;28;20026;-60
2022/08/11 15:52:24;;;;;;;1.02;0.93;;;;;;;26.68;43.80;101982.41;5028828;28;20133;-59
2022/08/11 15:54:49;;;;;;;;;;;;;;;26.68;43.71;101982.41;5011959;28;20049;-58
2022/08/11 16:05:20;;;;;;;1.48;0.90;;;;;;;26.71;43.45;101973.81;5018944;28;19910;-59
2022/08/11 16:07:48;;;;;;;1.55;0.82;;;;;;;26.71;43.73;101972.97;5011056;28;20112;-59
2022/08/11 16:10:20;;;;;;;1.25;0.90;;;;;;;26.72;43.63;101972.78;5011740;28;20032;-59
2022/08/11 16:18:39;;;;;;;1.00;0.88;;;;;;;26.72;43.70;101967.34;5028730;28;20057;-59
2022/08/11 16:21:07;;;;;;;1.83;0.88;;;;;;;26.76;43.77;101965.91;5012235;28;20021;-59
2022/08/11 16:23:33;;;;;;;1.50;0.85;;;;;;;26.76;43.57;101962.31;5011269;28;20022;-59
2022/08/11 16:26:00;;;;;;;1.10;0.90;;;;;;;26.77;43.50;101956.69;4994467;28;20025;-59
2022/08/11 16:28:26;;;;;;;2.05;0.90;;;;;;;26.78;43.67;101957.50;5010608;28;20032;-58
2022/08/11 16:30:52;;;;;;;1.25;1.05;;;;;;;26.79;43.48;101961.94;5010783;28;20022;-59
2022/08/11 16:33:19;;;;;;;2.72;1.00;;;;;;;26.79;43.55;101957.31;5010539;28;20042;-61
2022/08/11 16:38:34;;;;;;;1.40;0.85;;;;;;;26.82;43.58;101958.81;5013290;28;20069;-59
2022/08/11 16:46:58;;;;;;;1.50;0.82;;;;;;;26.79;43.43;101957.31;5011119;28;20053;-58
2022/08/11 16:47:00;;;;;;;1.00;0.90;;;;;;;26.83;43.40;101955.88;5028020;28;20053;-59
2022/08/11 16:49:30;;;;;;;1.35;0.70;;;;;;;26.84;43.67;101945.81;5012230;28;20037;-59
2022/08/11 16:51:56;;;;;;;1.35;0.88;;;;;;;26.84;43.68;101954.84;4993864;28;20061;-59
2022/08/11 16:54:21;;;;;;;1.45;1.17;;;;;;;26.81;43.66;101944.34;5010686;28;20463;-59